To NAV CANADA Home Page Login to a new session Search on AWWS site Feedback and Comments Disclaimer Vers la page française équivalente Tips FAQ What's new on the site To the Forecasts and Observations / NOTAM section To "File a Flight Plan" website Publications and other links Update of the User's profile FIC Telephone Numbers My Weather Data Folder Route Weather Data Regional Weather Data Local Weather Data To the Forecasts and Observations / NOTAM section
Request Generated 08/29/2015 at 16:50:16 UTC . Weather information available at that time is displayed.

METAR/TAF

RED DEER/RED DEER REGIONAL/AB    

METAR CYQF 291600Z 10005KT 070V150 12SM FEW140 BKN250 18/09 A2979 RMK
AC2CI5 SLP089 DENSITY ALT 4100FT=
METAR CYQF 291500Z 06002KT 10SM BKN140 BKN250 15/11 A2980 RMK AC5CI2
SLP093 DENSITY ALT 3700FT=
METAR CYQF 291400Z 12002KT 8SM SCT120 BKN250 13/09 A2981 RMK AC4CI3
SLP095 DENSITY ALT 3500FT=

TAF AMD CYQF 291603Z 2916/2924 10008KT P6SM BKN250 TEMPO 2916/2922
5SM FU
BECMG 2918/2920 14015KT
FM292200 14025G35KT 6SM FU FEW120 BKN210 TEMPO 2922/2924 4SM FU
RMK NXT FCST BY 291800Z=
Your time UTC time
Weather data provided by Environment Canada and NAV CANADA